Time;durP1;ratioP1;P1;durP2;ratioP2;P2;SDS_P1;SDS_P2;PMS_P1;PMS_P2;Temp;Humidity;BMP_temperature;BMP_pressure;BME280_temperature;BME280_humidity;BME280_pressure;Samples;Min_cycle;Max_cycle;Signal;HPM_P1;HPM_P2
2023/01/28 00:01:52;;;;;;;5.60;4.18;;;;;;;1.49;100.00;102872.34;10082625;28;20085;-67
2023/01/28 00:06:48;;;;;;;4.80;4.40;;;;;;;1.50;100.00;102879.38;10101140;28;20081;-67
2023/01/28 00:11:45;;;;;;;4.55;4.15;;;;;;;1.44;100.00;102876.47;10102054;28;20090;-67
2023/01/28 00:16:41;;;;;;;5.18;4.68;;;;;;;1.44;100.00;102881.03;10100271;28;20094;-67
2023/01/28 00:21:38;;;;;;;5.60;3.88;;;;;;;1.36;100.00;102879.34;10109495;28;20086;-68
2023/01/28 00:26:35;;;;;;;5.15;4.65;;;;;;;1.40;100.00;102880.59;10103699;28;20074;-69
2023/01/28 00:31:33;;;;;;;4.70;4.30;;;;;;;1.43;100.00;102885.56;10095961;28;20051;-69
2023/01/28 00:36:29;;;;;;;4.68;4.20;;;;;;;1.45;100.00;102888.91;10109082;28;20050;-68
2023/01/28 00:41:28;;;;;;;4.80;4.30;;;;;;;1.43;100.00;102885.56;10103034;28;20613;-69
2023/01/28 00:46:27;;;;;;;4.38;3.97;;;;;;;1.49;100.00;102869.66;10103160;28;20043;-69
2023/01/28 00:51:24;;;;;;;7.43;4.35;;;;;;;1.43;100.00;102882.88;10100699;28;20043;-68
2023/01/28 00:56:21;;;;;;;4.55;4.15;;;;;;;1.41;100.00;102871.47;10094525;28;20433;-70
2023/01/28 01:01:23;;;;;;;4.70;4.13;;;;;;;1.43;100.00;102872.09;10097449;28;20129;-70
2023/01/28 01:06:21;;;;;;;5.55;4.10;;;;;;;1.33;100.00;102873.53;10108769;28;20046;-67
2023/01/28 01:11:18;;;;;;;5.25;4.03;;;;;;;1.31;100.00;102868.34;10106898;28;20496;-69
2023/01/28 01:16:15;;;;;;;4.38;3.90;;;;;;;1.21;100.00;102870.59;10100538;28;20413;-69
2023/01/28 01:21:15;;;;;;;5.15;3.97;;;;;;;1.21;100.00;102881.38;10103598;28;20050;-68
2023/01/28 01:26:12;;;;;;;6.40;3.60;;;;;;;1.15;100.00;102872.22;10099503;28;20071;-69
2023/01/28 01:31:17;;;;;;;5.07;4.15;;;;;;;1.14;100.00;102880.50;10104639;28;20794;-69
2023/01/28 01:36:16;;;;;;;5.18;4.22;;;;;;;1.16;100.00;102873.06;10112322;28;20126;-66
2023/01/28 01:41:23;;;;;;;6.05;3.90;;;;;;;1.15;100.00;102877.63;10107536;28;20062;-66
2023/01/28 01:46:40;;;;;;;6.60;4.10;;;;;;;1.13;100.00;102868.06;10100962;28;20105;-66
2023/01/28 01:51:36;;;;;;;4.85;3.97;;;;;;;1.03;100.00;102869.28;10099147;28;20054;-66
2023/01/28 01:56:38;;;;;;;4.07;3.78;;;;;;;0.87;100.00;102864.25;10095184;28;20114;-66
2023/01/28 02:01:34;;;;;;;5.23;4.20;;;;;;;0.98;100.00;102869.06;10099850;28;20461;-67
2023/01/28 02:06:32;;;;;;;5.10;4.15;;;;;;;0.97;100.00;102864.69;10094897;28;20488;-67
2023/01/28 02:11:32;;;;;;;4.85;4.10;;;;;;;0.94;100.00;102875.88;10103068;28;20113;-67
2023/01/28 02:16:30;;;;;;;7.47;4.25;;;;;;;0.91;100.00;102870.91;10104206;28;20058;-68
2023/01/28 02:21:41;;;;;;;4.20;3.80;;;;;;;0.84;100.00;102873.56;10096142;28;20058;-68
2023/01/28 02:27:23;;;;;;;4.57;3.70;;;;;;;0.87;100.00;102864.25;10101729;28;20133;-68
2023/01/28 02:32:21;;;;;;;4.10;3.70;;;;;;;0.86;100.00;102857.19;10099646;28;20057;-68
2023/01/28 02:37:32;;;;;;;3.88;3.50;;;;;;;0.84;100.00;102859.25;10093549;28;20039;-69
2023/01/28 02:42:33;;;;;;;5.30;4.00;;;;;;;0.93;100.00;102855.38;10105152;28;20497;-68
2023/01/28 02:58:27;;;;;;;5.95;4.35;;;;;;;0.69;100.00;102864.75;10092111;28;20444;-69
2023/01/28 03:04:00;;;;;;;5.63;3.88;;;;;;;0.96;100.00;102868.44;10098635;28;20050;-69
2023/01/28 03:40:59;;;;;;;7.18;4.10;;;;;;;0.90;100.00;102854.91;10104461;28;20059;-69
2023/01/28 03:45:56;;;;;;;4.13;3.63;;;;;;;1.03;100.00;102853.13;10114214;28;20125;-67
2023/01/28 03:50:54;;;;;;;5.57;3.83;;;;;;;0.88;100.00;102857.81;10110109;28;20046;-69
2023/01/28 03:55:52;;;;;;;6.88;3.53;;;;;;;0.91;100.00;102852.03;10114902;28;20046;-69
2023/01/28 04:00:49;;;;;;;5.20;4.25;;;;;;;0.77;100.00;102851.16;10116059;28;20070;-69
2023/01/28 04:05:56;;;;;;;8.25;4.78;;;;;;;0.71;100.00;102848.41;10100984;28;20063;-69
2023/01/28 04:10:52;;;;;;;6.43;4.40;;;;;;;0.61;100.00;102854.16;10109568;28;20070;-69
2023/01/28 04:15:50;;;;;;;5.43;4.18;;;;;;;0.74;100.00;102848.88;10101687;28;20047;-69
2023/01/28 04:20:47;;;;;;;5.10;4.00;;;;;;;0.67;100.00;102847.97;10105490;28;20055;-69
2023/01/28 04:25:44;;;;;;;7.07;4.50;;;;;;;0.60;100.00;102842.56;10109678;28;20054;-67
2023/01/28 04:30:40;;;;;;;5.00;4.50;;;;;;;0.43;100.00;102846.59;10103971;28;20051;-68
2023/01/28 04:35:37;;;;;;;9.95;4.80;;;;;;;0.37;100.00;102852.75;10104358;28;20183;-68
2023/01/28 04:40:33;;;;;;;7.28;4.85;;;;;;;0.41;100.00;102854.03;10104818;28;20047;-68
2023/01/28 04:45:30;;;;;;;6.85;5.15;;;;;;;0.40;100.00;102857.78;10096794;28;20075;-69
2023/01/28 04:50:27;;;;;;;5.60;5.03;;;;;;;0.42;100.00;102858.41;10107877;28;20053;-69
2023/01/28 04:55:23;;;;;;;5.90;5.22;;;;;;;0.36;100.00;102856.50;10096125;28;20065;-68
2023/01/28 05:00:20;;;;;;;9.70;5.68;;;;;;;0.35;100.00;102865.63;10102621;28;20055;-67
2023/01/28 05:05:17;;;;;;;8.07;6.15;;;;;;;0.23;100.00;102867.16;10101144;28;20083;-68
2023/01/28 05:10:13;;;;;;;6.75;5.78;;;;;;;0.17;100.00;102858.84;10111605;28;20417;-67
2023/01/28 05:15:10;;;;;;;10.15;7.00;;;;;;;0.04;100.00;102853.38;10100986;28;20051;-67
2023/01/28 05:20:07;;;;;;;8.02;6.60;;;;;;;-0.03;100.00;102853.31;10096677;28;20043;-68
2023/01/28 05:25:04;;;;;;;7.65;6.88;;;;;;;-0.14;100.00;102850.31;10106840;28;20568;-68
2023/01/28 05:30:01;;;;;;;9.88;7.25;;;;;;;-0.34;100.00;102834.03;10102243;28;20046;-67
2023/01/28 05:34:57;;;;;;;10.35;8.35;;;;;;;-0.57;100.00;102831.53;10104141;28;20065;-67
2023/01/28 05:39:54;;;;;;;8.55;6.85;;;;;;;-0.71;100.00;102834.06;10092452;28;20035;-70
2023/01/28 05:44:50;;;;;;;9.07;8.23;;;;;;;-0.89;100.00;102841.72;10094367;28;20052;-66
2023/01/28 05:49:47;;;;;;;9.52;7.88;;;;;;;-1.05;100.00;102834.72;10106530;28;20574;-68
2023/01/28 05:54:43;;;;;;;10.30;9.40;;;;;;;-1.14;100.00;102838.53;10107915;28;20127;-68
2023/01/28 05:59:40;;;;;;;9.10;8.25;;;;;;;-1.12;100.00;102842.69;10098932;28;20047;-68
2023/01/28 06:04:36;;;;;;;9.50;8.65;;;;;;;-1.25;100.00;102831.81;10105738;28;20081;-67
2023/01/28 06:09:33;;;;;;;10.45;9.55;;;;;;;-1.14;100.00;102842.06;10104687;28;20130;-67
2023/01/28 06:14:29;;;;;;;10.98;9.98;;;;;;;-1.16;100.00;102843.25;10054344;28;20059;-67
2023/01/28 06:19:25;;;;;;;10.80;9.70;;;;;;;-1.15;100.00;102835.00;10095440;28;20509;-69
2023/01/28 06:24:22;;;;;;;10.80;9.80;;;;;;;-1.22;100.00;102835.97;10090057;28;20043;-68
2023/01/28 06:29:19;;;;;;;11.52;10.32;;;;;;;-1.28;100.00;102827.63;10091982;28;20097;-68
2023/01/28 06:34:16;;;;;;;13.23;10.07;;;;;;;-1.26;100.00;102824.75;10091794;28;20062;-69
2023/01/28 06:39:12;;;;;;;11.88;9.73;;;;;;;-1.28;100.00;102826.78;10101699;28;20412;-68
2023/01/28 06:44:09;;;;;;;11.52;10.30;;;;;;;-1.28;100.00;102821.41;10101676;28;20488;-68
2023/01/28 06:49:05;;;;;;;13.02;11.80;;;;;;;-1.35;100.00;102826.69;10105897;28;20085;-68
2023/01/28 06:54:02;;;;;;;12.43;11.30;;;;;;;-1.41;100.00;102837.38;10099085;28;20053;-68
2023/01/28 06:58:58;;;;;;;13.23;12.00;;;;;;;-1.46;100.00;102845.13;10103823;28;20501;-68
2023/01/28 07:03:55;;;;;;;14.38;13.05;;;;;;;-1.45;100.00;102865.56;10090022;28;20043;-69
2023/01/28 07:08:52;;;;;;;18.27;12.93;;;;;;;-1.25;100.00;102869.38;10097691;28;20050;-68
2023/01/28 07:13:48;;;;;;;11.93;10.73;;;;;;;-1.26;100.00;102899.91;10102687;28;20059;-68
2023/01/28 07:18:45;;;;;;;13.05;11.63;;;;;;;-1.30;100.00;102903.97;10108185;28;20050;-68
2023/01/28 07:23:41;;;;;;;11.90;10.90;;;;;;;-1.29;100.00;102900.28;10105319;28;20057;-68
2023/01/28 07:28:38;;;;;;;13.43;11.88;;;;;;;-1.35;100.00;102917.13;10071209;28;20051;-69
2023/01/28 07:33:34;;;;;;;13.10;11.80;;;;;;;-1.32;100.00;102906.03;10081947;28;20051;-68
2023/01/28 07:38:30;;;;;;;14.55;13.27;;;;;;;-1.49;100.00;102906.19;10105483;28;20237;-68
2023/01/28 07:43:27;;;;;;;14.95;13.55;;;;;;;-1.52;100.00;102913.78;10095866;28;20138;-69
2023/01/28 07:48:24;;;;;;;15.40;13.95;;;;;;;-1.59;100.00;102924.41;10103341;28;20043;-68
2023/01/28 07:53:20;;;;;;;15.75;13.95;;;;;;;-1.60;100.00;102925.44;10092366;28;20054;-69
2023/01/28 07:58:16;;;;;;;15.40;13.80;;;;;;;-1.63;100.00;102919.59;10100957;28;20146;-70
2023/01/28 08:03:14;;;;;;;16.10;14.60;;;;;;;-1.67;100.00;102919.13;10101603;28;20046;-70
2023/01/28 08:08:11;;;;;;;16.95;15.27;;;;;;;-1.70;100.00;102943.63;10104024;28;20047;-70
2023/01/28 08:13:09;;;;;;;18.17;16.50;;;;;;;-1.69;100.00;102942.63;10106815;28;20098;-70
2023/01/28 08:18:08;;;;;;;16.95;15.35;;;;;;;-1.73;100.00;102946.66;10100999;28;20053;-69
2023/01/28 08:23:15;;;;;;;16.27;14.52;;;;;;;-1.73;100.00;102926.03;10105311;28;20059;-70
2023/01/28 08:28:13;;;;;;;17.42;15.85;;;;;;;-1.64;100.00;102934.03;10098813;28;20138;-68
2023/01/28 08:33:13;;;;;;;25.50;16.80;;;;;;;-1.57;100.00;102930.41;10097952;28;20051;-68
2023/01/28 08:38:12;;;;;;;17.98;16.17;;;;;;;-1.42;100.00;102948.38;10095474;28;20552;-69
2023/01/28 08:43:09;;;;;;;17.45;15.85;;;;;;;-1.31;100.00;102926.47;10100727;28;20082;-70
2023/01/28 08:48:07;;;;;;;17.00;15.20;;;;;;;-1.31;100.00;102945.25;10101461;28;20075;-68
2023/01/28 08:53:12;;;;;;;14.63;13.15;;;;;;;-1.28;100.00;102944.88;10103347;28;20102;-68
2023/01/28 08:58:12;;;;;;;14.05;12.65;;;;;;;-1.22;100.00;102954.88;10092549;28;20042;-68
2023/01/28 09:03:08;;;;;;;13.65;12.27;;;;;;;-1.19;100.00;102965.25;10100004;28;20134;-69
2023/01/28 09:08:07;;;;;;;12.80;11.57;;;;;;;-0.94;100.00;102962.31;10101258;28;20049;-68
2023/01/28 09:13:07;;;;;;;13.23;11.57;;;;;;;-0.65;100.00;102946.16;10101864;28;20065;-68
2023/01/28 09:18:05;;;;;;;13.70;11.80;;;;;;;-0.54;100.00;102973.56;10098542;28;20047;-69
2023/01/28 09:23:01;;;;;;;12.20;11.00;;;;;;;-0.34;100.00;102982.69;10098907;28;20061;-69
2023/01/28 09:27:58;;;;;;;12.45;10.80;;;;;;;-0.22;100.00;102973.09;10098210;28;20043;-70
2023/01/28 09:32:57;;;;;;;11.38;10.25;;;;;;;-0.01;100.00;102987.59;10088739;28;20139;-69
2023/01/28 09:37:57;;;;;;;11.27;10.13;;;;;;;0.05;100.00;102978.78;10072908;28;20535;-69
2023/01/28 09:43:03;;;;;;;10.32;9.32;;;;;;;-0.06;100.00;102995.41;10091203;28;20057;-69
2023/01/28 09:48:03;;;;;;;12.07;9.73;;;;;;;-0.20;100.00;102980.16;10091526;28;20082;-69
2023/01/28 09:53:11;;;;;;;16.73;10.07;;;;;;;0.03;100.00;102967.38;10099046;28;20047;-69
2023/01/28 09:58:14;;;;;;;11.25;10.15;;;;;;;0.42;100.00;102963.38;10097292;28;20047;-70
2023/01/28 10:03:41;;;;;;;11.75;9.38;;;;;;;0.90;100.00;102954.59;10098682;28;20084;-69
2023/01/28 10:09:00;;;;;;;11.98;9.43;;;;;;;1.50;100.00;102927.91;10094798;28;20074;-69
2023/01/28 10:14:19;;;;;;;11.43;10.15;;;;;;;2.41;100.00;102930.09;10092267;28;20122;-69
2023/01/28 10:19:22;;;;;;;10.55;9.60;;;;;;;1.85;100.00;102926.72;10084475;28;20073;-69
2023/01/28 10:24:30;;;;;;;13.80;9.43;;;;;;;2.74;100.00;102920.09;10087494;28;20069;-69
2023/01/28 10:29:32;;;;;;;13.85;9.25;;;;;;;2.96;100.00;102919.81;10085255;28;20059;-69
2023/01/28 10:34:29;;;;;;;9.13;8.20;;;;;;;2.58;100.00;102915.13;10093008;28;20086;-69
2023/01/28 10:39:27;;;;;;;11.38;8.98;;;;;;;2.28;100.00;102893.97;10084819;28;20061;-70
2023/01/28 10:44:36;;;;;;;10.57;8.50;;;;;;;2.12;100.00;102905.19;10101931;28;20856;-69
2023/01/28 10:49:41;;;;;;;15.27;8.90;;;;;;;1.92;100.00;102890.84;10093518;28;20051;-69
2023/01/28 10:54:37;;;;;;;12.27;8.95;;;;;;;1.94;100.00;102880.69;10085437;28;20050;-69
2023/01/28 10:59:35;;;;;;;15.90;8.95;;;;;;;1.45;100.00;102872.72;10101471;28;20151;-70
2023/01/28 11:04:34;;;;;;;13.02;9.55;;;;;;;1.51;100.00;102848.69;10089224;28;20107;-69
2023/01/28 11:09:34;;;;;;;9.75;8.82;;;;;;;1.86;100.00;102863.66;10084420;28;20142;-69
2023/01/28 11:14:30;;;;;;;10.73;9.63;;;;;;;1.82;100.00;102856.19;10100011;28;20051;-70
2023/01/28 11:19:33;;;;;;;13.05;10.82;;;;;;;1.73;100.00;102842.06;10102170;28;20459;-69
2023/01/28 11:24:33;;;;;;;11.95;10.02;;;;;;;1.74;100.00;102843.75;10105387;28;20101;-69
2023/01/28 11:29:31;;;;;;;13.82;10.75;;;;;;;1.57;100.00;102823.59;10093994;28;20154;-72
2023/01/28 11:34:33;;;;;;;13.60;10.93;;;;;;;2.80;100.00;102804.09;10091307;28;20088;-69
2023/01/28 11:39:30;;;;;;;13.63;10.13;;;;;;;3.52;100.00;102807.44;10084055;28;20099;-69
2023/01/28 11:44:26;;;;;;;11.43;10.23;;;;;;;3.09;100.00;102803.53;10106853;28;20051;-70
2023/01/28 11:50:00;;;;;;;11.73;10.15;;;;;;;2.81;100.00;102800.34;10098542;28;20047;-70
2023/01/28 11:55:27;;;;;;;13.25;10.32;;;;;;;2.82;100.00;102791.22;10103053;28;20543;-69
2023/01/28 12:00:56;;;;;;;12.90;10.85;;;;;;;2.19;100.00;102808.03;10095117;28;20066;-69
2023/01/28 12:06:01;;;;;;;13.20;11.90;;;;;;;2.09;100.00;102797.66;10100264;28;20076;-69
2023/01/28 12:17:16;;;;;;;12.63;11.35;;;;;;;2.06;100.00;102806.97;10104633;28;20514;-70
2023/01/28 12:22:18;;;;;;;17.88;10.85;;;;;;;2.18;100.00;102790.16;10098462;28;20113;-68
2023/01/28 12:27:53;;;;;;;14.95;11.80;;;;;;;2.45;100.00;102785.53;10093341;28;20490;-69
2023/01/28 12:33:07;;;;;;;14.38;11.77;;;;;;;2.66;100.00;102776.31;10107367;28;20053;-69
2023/01/28 12:38:10;;;;;;;12.88;11.43;;;;;;;2.79;100.00;102786.25;10104853;28;20043;-68
2023/01/28 12:43:44;;;;;;;13.10;11.70;;;;;;;4.42;100.00;102769.13;10104304;28;20047;-68
2023/01/28 12:48:53;;;;;;;13.48;10.98;;;;;;;4.14;100.00;102756.09;10089990;28;20154;-70
2023/01/28 12:53:56;;;;;;;16.13;10.90;;;;;;;3.42;100.00;102747.59;10086212;28;20134;-69
2023/01/28 12:59:07;;;;;;;12.45;10.80;;;;;;;3.06;100.00;102749.91;10079881;28;20051;-69
2023/01/28 13:04:16;;;;;;;13.88;11.80;;;;;;;2.61;100.00;102744.53;10096297;28;20138;-69
2023/01/28 13:09:18;;;;;;;13.13;11.73;;;;;;;2.47;100.00;102732.97;10092628;28;20039;-68
2023/01/28 13:14:16;;;;;;;15.88;12.20;;;;;;;2.34;100.00;102734.88;10100874;28;20564;-69
2023/01/28 13:19:18;;;;;;;13.13;11.68;;;;;;;2.90;100.00;102726.94;10097493;28;20051;-68
2023/01/28 13:24:14;;;;;;;14.07;12.30;;;;;;;2.86;100.00;102717.63;10087025;28;20097;-69
2023/01/28 13:29:14;;;;;;;19.02;13.35;;;;;;;3.09;100.00;102725.16;10096221;28;20102;-68
2023/01/28 13:34:34;;;;;;;14.48;12.07;;;;;;;3.37;100.00;102743.66;10087607;28;20071;-69
2023/01/28 13:39:34;;;;;;;17.45;12.68;;;;;;;3.00;100.00;102742.69;10081167;28;20050;-69
2023/01/28 13:44:33;;;;;;;15.88;12.32;;;;;;;3.85;100.00;102744.91;10087562;28;20142;-69
2023/01/28 13:49:42;;;;;;;18.42;12.88;;;;;;;3.62;100.00;102750.13;10091675;28;20062;-68
2023/01/28 13:55:02;;;;;;;16.33;13.52;;;;;;;2.81;100.00;102762.53;10096752;28;20661;-68
2023/01/28 14:00:31;;;;;;;17.30;12.55;;;;;;;2.52;100.00;102770.13;10093564;28;20138;-68
2023/01/28 14:05:35;;;;;;;14.98;13.20;;;;;;;2.76;100.00;102773.16;10095310;28;20043;-68
2023/01/28 14:10:56;;;;;;;17.75;14.23;;;;;;;2.45;100.00;102763.94;10087389;28;20050;-68
2023/01/28 14:16:06;;;;;;;21.23;13.98;;;;;;;2.50;100.00;102753.31;10086774;28;20055;-68
2023/01/28 14:21:14;;;;;;;17.58;13.35;;;;;;;2.49;100.00;102748.97;10088970;28;20512;-68
2023/01/28 14:26:34;;;;;;;21.25;15.35;;;;;;;2.36;100.00;102749.81;10086632;28;20493;-68
2023/01/28 14:31:35;;;;;;;16.55;13.07;;;;;;;2.12;100.00;102748.66;10082187;28;20549;-68
2023/01/28 14:36:39;;;;;;;19.00;14.65;;;;;;;2.14;100.00;102734.97;10088605;28;20134;-68
2023/01/28 14:41:36;;;;;;;19.38;15.25;;;;;;;2.10;100.00;102740.78;10092721;28;20085;-69
2023/01/28 14:46:50;;;;;;;18.52;14.68;;;;;;;2.05;100.00;102756.78;10108274;28;20062;-68
2023/01/28 14:52:04;;;;;;;16.58;14.02;;;;;;;1.87;100.00;102757.41;10091449;28;20062;-68
2023/01/28 14:57:36;;;;;;;16.65;13.43;;;;;;;2.05;100.00;102777.53;10084040;28;20510;-68
2023/01/28 15:02:32;;;;;;;20.75;13.68;;;;;;;2.05;100.00;102781.06;10101027;28;20061;-68
2023/01/28 15:07:29;;;;;;;16.17;13.60;;;;;;;2.04;100.00;102784.81;10090342;28;20105;-68
2023/01/28 15:12:26;;;;;;;19.15;13.55;;;;;;;1.99;100.00;102797.25;10093369;28;20039;-68
2023/01/28 15:17:26;;;;;;;18.20;14.15;;;;;;;1.88;100.00;102777.97;10089850;28;20051;-68
2023/01/28 15:22:26;;;;;;;18.85;14.68;;;;;;;1.94;100.00;102778.16;10095724;28;20513;-68
2023/01/28 15:27:29;;;;;;;18.67;14.85;;;;;;;1.98;100.00;102768.63;10085081;28;20063;-68
2023/01/28 15:32:28;;;;;;;19.75;14.38;;;;;;;1.88;100.00;102748.28;10091146;28;20062;-68
2023/01/28 15:37:25;;;;;;;19.50;13.50;;;;;;;1.87;100.00;102762.81;10106677;28;20073;-68
2023/01/28 15:42:28;;;;;;;20.58;15.18;;;;;;;1.77;100.00;102762.41;10105346;28;20428;-68
2023/01/28 15:47:33;;;;;;;20.27;16.38;;;;;;;1.67;100.00;102761.97;10103265;28;20050;-69
2023/01/28 15:52:50;;;;;;;19.55;15.02;;;;;;;1.68;100.00;102759.09;10099754;28;20043;-68
2023/01/28 15:57:47;;;;;;;20.13;15.07;;;;;;;1.66;100.00;102749.56;10086418;28;20071;-69
2023/01/28 16:02:48;;;;;;;19.98;15.02;;;;;;;1.75;100.00;102748.31;10101488;28;20649;-68
2023/01/28 16:07:45;;;;;;;25.63;17.33;;;;;;;1.75;100.00;102736.69;10088244;28;20047;-68
2023/01/28 16:12:50;;;;;;;19.83;15.75;;;;;;;1.69;100.00;102743.72;10096589;28;20074;-68
2023/01/28 16:17:49;;;;;;;17.42;14.48;;;;;;;1.81;100.00;102747.47;10092729;28;20421;-69
2023/01/28 16:22:46;;;;;;;19.55;14.85;;;;;;;1.68;100.00;102763.66;10089146;28;20047;-68
2023/01/28 16:27:42;;;;;;;21.35;15.52;;;;;;;1.66;100.00;102744.16;10087384;28;20573;-68
2023/01/28 16:32:41;;;;;;;21.60;15.88;;;;;;;1.69;100.00;102759.91;10099234;28;20039;-68
2023/01/28 16:37:37;;;;;;;16.85;14.60;;;;;;;1.66;100.00;102763.03;10082509;28;20053;-69
2023/01/28 16:42:37;;;;;;;21.60;16.40;;;;;;;1.55;100.00;102771.75;10092553;28;20043;-69
2023/01/28 16:47:33;;;;;;;24.65;16.63;;;;;;;1.42;100.00;102767.19;10100609;28;20083;-69
2023/01/28 16:52:30;;;;;;;24.88;17.92;;;;;;;1.36;100.00;102741.03;10088052;28;20054;-68
2023/01/28 16:57:34;;;;;;;22.67;17.75;;;;;;;1.29;100.00;102754.50;10091618;28;20057;-68
2023/01/28 17:02:31;;;;;;;21.98;17.55;;;;;;;1.32;100.00;102785.59;10093428;28;20066;-68
2023/01/28 17:07:27;;;;;;;24.85;19.10;;;;;;;1.35;100.00;102780.66;10091344;28;20096;-68
2023/01/28 17:12:24;;;;;;;22.77;18.13;;;;;;;1.39;100.00;102760.34;10097705;28;20071;-69
2023/01/28 17:17:21;;;;;;;23.60;17.55;;;;;;;1.24;100.00;102757.81;10079306;28;20051;-68
2023/01/28 17:22:17;;;;;;;22.70;17.90;;;;;;;1.16;100.00;102765.25;10100528;28;20086;-69
2023/01/28 17:27:14;;;;;;;21.83;18.10;;;;;;;1.22;100.00;102764.47;10084170;28;20504;-68
2023/01/28 17:32:10;;;;;;;25.17;19.63;;;;;;;1.33;100.00;102755.78;10103356;28;20070;-69
2023/01/28 17:37:07;;;;;;;26.60;19.23;;;;;;;1.28;100.00;102769.03;10090896;28;20070;-69
2023/01/28 17:42:03;;;;;;;26.92;19.08;;;;;;;1.33;100.00;102760.34;10094421;28;20043;-68
2023/01/28 17:47:01;;;;;;;29.25;21.73;;;;;;;1.43;100.00;102771.53;10097873;28;20428;-68
2023/01/28 17:51:57;;;;;;;24.02;18.17;;;;;;;1.44;100.00;102768.63;10087021;28;20051;-69
2023/01/28 17:56:54;;;;;;;28.08;19.27;;;;;;;1.49;100.00;102776.09;10086391;28;20465;-68
2023/01/28 18:01:53;;;;;;;24.23;19.60;;;;;;;1.44;100.00;102751.63;10087307;28;20092;-68
2023/01/28 18:06:50;;;;;;;24.98;19.85;;;;;;;1.41;100.00;102752.03;10089751;28;20047;-69
2023/01/28 18:11:47;;;;;;;23.02;18.30;;;;;;;1.47;100.00;102776.31;10094756;28;20503;-69
2023/01/28 18:16:43;;;;;;;23.17;18.23;;;;;;;1.50;100.00;102776.94;10081297;28;20424;-69
2023/01/28 18:21:42;;;;;;;25.08;17.80;;;;;;;1.46;100.00;102788.13;10086588;28;20047;-69
2023/01/28 18:26:49;;;;;;;25.38;18.35;;;;;;;1.35;100.00;102801.41;10076370;28;20042;-69
2023/01/28 18:31:47;;;;;;;23.05;17.35;;;;;;;1.51;100.00;102800.16;10097956;28;20039;-69
2023/01/28 18:36:43;;;;;;;26.05;17.50;;;;;;;1.49;100.00;102786.06;10086615;28;20043;-69
2023/01/28 18:41:40;;;;;;;25.88;19.25;;;;;;;1.53;100.00;102782.72;10093795;28;20042;-69
2023/01/28 18:46:36;;;;;;;22.88;17.55;;;;;;;1.53;100.00;102776.50;10086612;28;20505;-69
2023/01/28 18:51:33;;;;;;;26.48;19.10;;;;;;;1.46;100.00;102766.56;10085253;28;21005;-69
2023/01/28 18:56:30;;;;;;;25.35;18.92;;;;;;;1.48;100.00;102763.66;10090741;28;20081;-69
2023/01/28 19:01:28;;;;;;;26.05;19.55;;;;;;;1.46;100.00;102750.41;10085352;28;20069;-69
2023/01/28 19:06:27;;;;;;;23.80;19.10;;;;;;;1.46;100.00;102746.84;10102505;28;20055;-69
2023/01/28 19:11:25;;;;;;;25.38;19.25;;;;;;;1.47;100.00;102754.75;10112363;28;20093;-69
2023/01/28 19:16:22;;;;;;;25.83;20.33;;;;;;;1.40;100.00;102748.50;10093596;28;20079;-69
2023/01/28 19:21:19;;;;;;;26.85;21.35;;;;;;;1.47;100.00;102748.53;10102166;28;20145;-69
2023/01/28 19:26:19;;;;;;;26.92;21.52;;;;;;;1.39;100.00;102749.56;10097868;28;20067;-69
2023/01/28 19:31:20;;;;;;;26.00;21.98;;;;;;;1.30;100.00;102755.34;10095774;28;20043;-69
2023/01/28 19:36:16;;;;;;;29.10;24.73;;;;;;;1.36;100.00;102747.25;10098414;28;20066;-69
2023/01/28 19:41:15;;;;;;;29.52;23.33;;;;;;;1.34;100.00;102762.81;10105258;28;20535;-69
2023/01/28 19:46:14;;;;;;;29.83;23.50;;;;;;;1.34;100.00;102752.03;10097198;28;20046;-70
2023/01/28 19:51:13;;;;;;;31.60;26.40;;;;;;;1.26;100.00;102749.53;10103899;28;20042;-68
2023/01/28 19:56:15;;;;;;;34.10;28.48;;;;;;;1.09;100.00;102759.88;10103925;28;20163;-68
2023/01/28 20:01:12;;;;;;;35.80;26.83;;;;;;;1.10;100.00;102760.72;10096989;28;20509;-68
2023/01/28 20:06:14;;;;;;;34.67;27.83;;;;;;;1.23;100.00;102766.09;10098001;28;20134;-70
2023/01/28 20:11:14;;;;;;;36.20;29.75;;;;;;;1.12;100.00;102750.56;10097945;28;20049;-68
2023/01/28 20:16:18;;;;;;;30.38;25.23;;;;;;;1.27;100.00;102753.88;10098594;28;20051;-69
2023/01/28 20:21:14;;;;;;;31.30;28.00;;;;;;;1.24;100.00;102746.22;10088452;28;20054;-69
2023/01/28 20:26:10;;;;;;;32.42;28.10;;;;;;;1.24;100.00;102740.84;10093438;28;20047;-69
2023/01/28 20:31:09;;;;;;;35.13;25.17;;;;;;;1.19;100.00;102743.31;10085635;28;20098;-69
2023/01/28 20:36:08;;;;;;;34.65;28.30;;;;;;;1.10;100.00;102739.97;10087863;28;20089;-69
2023/01/28 20:41:28;;;;;;;32.63;27.92;;;;;;;1.13;100.00;102739.56;10081551;28;20126;-70
2023/01/28 20:46:28;;;;;;;35.00;28.83;;;;;;;1.16;100.00;102732.94;10083316;28;20154;-69
2023/01/28 20:51:27;;;;;;;40.50;30.83;;;;;;;1.18;100.00;102720.91;10087418;28;20059;-69
2023/01/28 20:56:24;;;;;;;35.55;29.48;;;;;;;1.22;100.00;102721.34;10088451;28;20145;-68
2023/01/28 21:01:27;;;;;;;31.13;27.35;;;;;;;1.31;100.00;102719.28;10095918;28;20461;-69
2023/01/28 21:06:24;;;;;;;33.22;26.63;;;;;;;1.28;100.00;102723.22;10095177;28;20133;-70
2023/01/28 21:11:22;;;;;;;34.97;28.42;;;;;;;1.32;100.00;102726.31;10099484;28;20054;-68
2023/01/28 21:16:18;;;;;;;33.53;29.08;;;;;;;1.36;100.00;102727.56;10088821;28;20647;-68
2023/01/28 21:21:20;;;;;;;30.85;27.42;;;;;;;1.39;100.00;102711.81;10098005;28;20146;-68
2023/01/28 21:26:17;;;;;;;31.93;26.93;;;;;;;1.43;100.00;102723.84;10093813;28;20424;-68
2023/01/28 21:31:16;;;;;;;30.05;26.48;;;;;;;1.45;100.00;102716.38;10107128;28;20465;-68
2023/01/28 21:36:14;;;;;;;30.15;26.85;;;;;;;1.50;100.00;102717.63;10102167;28;20179;-68
2023/01/28 21:41:10;;;;;;;31.60;28.10;;;;;;;1.41;100.00;102731.28;10100835;28;20433;-68
2023/01/28 21:46:07;;;;;;;33.00;29.55;;;;;;;1.38;100.00;102720.13;10108719;28;20461;-68
2023/01/28 21:56:21;;;;;;;32.60;29.13;;;;;;;1.40;100.00;102718.88;10104408;28;20453;-69
2023/01/28 22:01:17;;;;;;;31.70;26.60;;;;;;;1.42;100.00;102711.41;10088437;28;20505;-69
2023/01/28 22:06:14;;;;;;;35.88;29.92;;;;;;;1.53;100.00;102709.09;10101779;28;20138;-69
2023/01/28 22:11:10;;;;;;;34.72;30.98;;;;;;;1.39;100.00;102706.44;10103465;28;20134;-69
2023/01/28 22:16:07;;;;;;;37.17;29.92;;;;;;;1.37;100.00;102697.72;10086496;28;20130;-68
2023/01/28 22:21:10;;;;;;;35.78;31.33;;;;;;;1.46;100.00;102707.25;10079012;28;20510;-70
2023/01/28 22:26:06;;;;;;;;;;;;;;;1.46;100.00;102701.88;10090562;28;20126;-69
2023/01/28 22:31:05;;;;;;;33.97;30.15;;;;;;;1.50;100.00;102696.06;10090908;28;20608;-69
2023/01/28 22:36:07;;;;;;;37.25;29.85;;;;;;;1.50;100.00;102685.25;10095513;28;20053;-69
2023/01/28 22:41:12;;;;;;;36.00;32.20;;;;;;;1.53;100.00;102679.44;10098702;28;20055;-69
2023/01/28 22:46:09;;;;;;;39.38;32.35;;;;;;;1.49;100.00;102673.66;10109212;28;20166;-69
2023/01/28 22:51:09;;;;;;;35.55;29.00;;;;;;;1.48;100.00;102661.19;10100136;28;20539;-69
2023/01/28 22:56:06;;;;;;;34.13;29.05;;;;;;;1.47;100.00;102665.78;10095183;28;20039;-69
2023/01/28 23:01:03;;;;;;;33.45;29.92;;;;;;;1.46;100.00;102658.75;10106134;28;20404;-69
2023/01/28 23:06:01;;;;;;;36.08;29.67;;;;;;;1.49;100.00;102640.50;10107963;28;20059;-69
2023/01/28 23:11:00;;;;;;;37.75;31.52;;;;;;;1.51;100.00;102659.94;10096379;28;20039;-69
2023/01/28 23:26:38;;;;;;;32.50;27.77;;;;;;;1.62;100.00;102643.13;10096595;28;20134;-69
2023/01/28 23:31:34;;;;;;;34.75;29.13;;;;;;;1.53;100.00;102657.88;10109792;28;20047;-70
2023/01/28 23:36:31;;;;;;;37.13;30.05;;;;;;;1.55;100.00;102655.81;10107162;28;20098;-69
2023/01/28 23:41:27;;;;;;;36.00;29.90;;;;;;;1.51;100.00;102654.56;10100388;28;20061;-69